Time;durP1;ratioP1;P1;durP2;ratioP2;P2;SDS_P1;SDS_P2;PMS_P1;PMS_P2;Temp;Humidity;BMP_temperature;BMP_pressure;BME280_temperature;BME280_humidity;BME280_pressure;Samples;Min_cycle;Max_cycle;Signal;HPM_P1;HPM_P2
2023/01/25 00:00:37;;;;;;;72.72;38.97;;;0.90;99.90;;;;;;5075609;28;20100;-73
2023/01/25 00:03:03;;;;;;;80.55;40.13;;;1.00;99.90;;;;;;5075725;28;20104;-73
2023/01/25 00:05:28;;;;;;;92.00;41.63;;;0.90;99.90;;;;;;5075934;28;20078;-73
2023/01/25 00:07:54;;;;;;;73.43;40.13;;;0.90;99.90;;;;;;5076118;28;20033;-73
2023/01/25 00:10:20;;;;;;;74.60;38.88;;;0.90;99.90;;;;;;5075441;28;20033;-73
2023/01/25 00:12:45;;;;;;;77.80;38.22;;;0.90;99.90;;;;;;5064988;28;20033;-73
2023/01/25 00:15:11;;;;;;;74.55;38.85;;;0.90;99.90;;;;;;5055833;28;20036;-73
2023/01/25 00:17:36;;;;;;;71.43;37.65;;;0.90;99.90;;;;;;5055562;28;20055;-73
2023/01/25 00:20:02;;;;;;;83.82;42.05;;;0.80;99.90;;;;;;5055956;28;20028;-73
2023/01/25 00:22:28;;;;;;;86.05;42.05;;;0.90;99.90;;;;;;5055299;28;20033;-73
2023/01/25 00:24:54;;;;;;;81.70;41.47;;;0.90;99.90;;;;;;5055816;28;20025;-74
2023/01/25 00:27:19;;;;;;;81.40;40.13;;;0.90;99.90;;;;;;5054962;28;20024;-73
2023/01/25 00:29:45;;;;;;;80.30;41.28;;;0.90;99.90;;;;;;5055285;28;20502;-73
2023/01/25 00:32:13;;;;;;;85.53;42.08;;;0.90;99.90;;;;;;5055154;28;20029;-73
2023/01/25 00:34:43;;;;;;;90.18;44.42;;;0.90;99.90;;;;;;5055015;28;20025;-73
2023/01/25 00:37:19;;;;;;;85.40;44.67;;;0.90;99.90;;;;;;5054967;28;20033;-74
2023/01/25 00:39:45;;;;;;;95.68;47.53;;;0.90;99.90;;;;;;5055143;28;20118;-73
2023/01/25 00:42:11;;;;;;;89.63;45.80;;;0.90;99.90;;;;;;5054911;28;20017;-73
2023/01/25 00:44:37;;;;;;;99.60;48.85;;;0.90;99.90;;;;;;5055185;28;20104;-73
2023/01/25 00:47:04;;;;;;;99.45;49.45;;;1.00;99.90;;;;;;5054789;28;20029;-73
2023/01/25 00:49:30;;;;;;;93.43;44.72;;;0.90;99.90;;;;;;5054670;28;20502;-73
2023/01/25 00:51:57;;;;;;;77.55;41.72;;;0.90;99.90;;;;;;5054532;28;20033;-73
2023/01/25 00:54:22;;;;;;;88.13;43.90;;;0.90;99.90;;;;;;5054805;28;20064;-73
2023/01/25 00:56:48;;;;;;;95.40;49.65;;;0.90;99.90;;;;;;5054533;28;20033;-73
2023/01/25 00:59:14;;;;;;;91.60;45.42;;;0.90;99.90;;;;;;5054741;28;20036;-73
2023/01/25 01:01:41;;;;;;;100.57;50.13;;;0.90;99.90;;;;;;5054891;28;20029;-73
2023/01/25 01:04:07;;;;;;;105.70;53.55;;;0.90;99.90;;;;;;5063877;28;20016;-74
2023/01/25 01:06:35;;;;;;;106.88;54.17;;;0.90;99.90;;;;;;5074287;28;20024;-73
2023/01/25 01:09:01;;;;;;;107.03;55.00;;;0.90;99.90;;;;;;5074421;28;20367;-73
2023/01/25 01:11:27;;;;;;;112.90;55.00;;;0.90;99.90;;;;;;5074757;28;20025;-73
2023/01/25 01:13:55;;;;;;;107.88;54.00;;;1.00;99.90;;;;;;5074181;28;20089;-73
2023/01/25 01:16:20;;;;;;;110.15;56.20;;;1.00;99.90;;;;;;5055801;28;20475;-73
2023/01/25 01:18:46;;;;;;;109.53;55.35;;;1.00;99.90;;;;;;5053852;28;20029;-73
2023/01/25 01:21:12;;;;;;;98.20;48.35;;;1.00;99.90;;;;;;5054395;28;20103;-73
2023/01/25 01:23:38;;;;;;;91.68;47.63;;;1.00;99.90;;;;;;5054141;28;20104;-73
2023/01/25 01:26:06;;;;;;;89.45;46.00;;;1.00;99.90;;;;;;5053951;28;20013;-73
2023/01/25 01:28:33;;;;;;;80.97;44.10;;;1.00;99.90;;;;;;5054267;28;20159;-73
2023/01/25 01:31:00;;;;;;;87.90;47.00;;;0.90;99.90;;;;;;5054109;28;20045;-73
2023/01/25 01:33:26;;;;;;;99.35;50.42;;;1.00;99.90;;;;;;5054022;28;20021;-73
2023/01/25 01:35:51;;;;;;;86.18;45.13;;;0.90;99.90;;;;;;5053900;28;20094;-74
2023/01/25 01:38:17;;;;;;;91.97;47.97;;;1.00;99.90;;;;;;5053777;28;20079;-73
2023/01/25 01:40:47;;;;;;;83.63;46.45;;;0.90;99.90;;;;;;5054192;28;20021;-73
2023/01/25 01:43:19;;;;;;;102.43;52.50;;;0.90;99.90;;;;;;5053639;28;20060;-73
2023/01/25 01:45:48;;;;;;;104.28;52.00;;;0.90;99.90;;;;;;5053933;28;20101;-74
2023/01/25 01:48:22;;;;;;;93.25;49.45;;;0.90;99.90;;;;;;5053957;28;20021;-73
2023/01/25 01:50:51;;;;;;;87.13;47.47;;;0.90;99.90;;;;;;5054219;28;20082;-73
2023/01/25 01:53:17;;;;;;;96.97;49.90;;;0.90;99.90;;;;;;5053496;28;20036;-73
2023/01/25 01:55:43;;;;;;;83.18;43.17;;;0.90;99.90;;;;;;5053936;28;20029;-73
2023/01/25 01:58:08;;;;;;;91.38;47.85;;;0.90;99.90;;;;;;5053392;28;20048;-73
2023/01/25 02:00:38;;;;;;;88.70;46.65;;;0.90;99.90;;;;;;5053308;28;20021;-73
2023/01/25 02:03:04;;;;;;;86.35;46.65;;;0.90;99.90;;;;;;5052600;28;20039;-73
2023/01/25 02:05:39;;;;;;;89.13;46.72;;;0.90;99.90;;;;;;5053543;28;20052;-73
2023/01/25 02:08:06;;;;;;;84.07;44.72;;;0.90;99.90;;;;;;5053626;28;20075;-73
2023/01/25 02:10:33;;;;;;;82.72;43.33;;;0.90;99.90;;;;;;5053028;28;20075;-73
2023/01/25 02:12:59;;;;;;;88.68;45.15;;;0.90;99.90;;;;;;5053162;28;20033;-73
2023/01/25 02:15:34;;;;;;;83.93;44.75;;;0.90;99.90;;;;;;5053223;28;20090;-73
2023/01/25 02:18:00;;;;;;;78.93;42.22;;;1.00;99.90;;;;;;5052972;28;20025;-73
2023/01/25 02:20:34;;;;;;;79.47;41.97;;;0.90;99.90;;;;;;5052213;28;20078;-73
2023/01/25 02:23:07;;;;;;;82.65;44.03;;;0.80;99.90;;;;;;5052889;28;20074;-73
2023/01/25 02:25:33;;;;;;;94.88;44.30;;;0.90;99.90;;;;;;5053256;28;20021;-74
2023/01/25 02:28:23;;;;;;;88.68;45.13;;;0.90;99.90;;;;;;5053317;28;20028;-73
2023/01/25 02:30:49;;;;;;;84.65;43.33;;;0.90;99.90;;;;;;5052769;28;20044;-73
2023/01/25 02:33:16;;;;;;;78.88;41.78;;;0.80;99.90;;;;;;5053285;28;20135;-74
2023/01/25 02:35:45;;;;;;;79.90;43.58;;;0.90;99.90;;;;;;5052956;28;20390;-73
2023/01/25 02:38:13;;;;;;;79.32;43.30;;;0.80;99.90;;;;;;5053050;28;20032;-73
2023/01/25 02:41:03;;;;;;;92.05;43.55;;;0.90;99.90;;;;;;5068279;28;20121;-73
2023/01/25 02:43:32;;;;;;;89.28;44.30;;;0.90;99.90;;;;;;5052850;28;20033;-73
2023/01/25 02:46:09;;;;;;;92.25;45.00;;;0.90;99.90;;;;;;5053241;28;20471;-73
2023/01/25 02:48:35;;;;;;;83.63;44.75;;;0.90;99.90;;;;;;5044179;28;20025;-73
2023/01/25 02:51:01;;;;;;;90.95;46.20;;;1.00;99.90;;;;;;5033157;28;20030;-73
2023/01/25 02:53:26;;;;;;;91.15;47.08;;;1.00;99.90;;;;;;5032960;28;20476;-73
2023/01/25 02:55:52;;;;;;;84.82;45.92;;;1.00;99.90;;;;;;5045950;28;20024;-73
2023/01/25 02:58:17;;;;;;;85.45;45.53;;;1.00;99.90;;;;;;5052666;28;20098;-73
2023/01/25 03:00:43;;;;;;;91.55;45.78;;;0.90;99.90;;;;;;5052657;28;20036;-74
2023/01/25 03:03:08;;;;;;;88.05;46.03;;;0.90;99.90;;;;;;5052532;28;20032;-74
2023/01/25 03:05:34;;;;;;;80.40;42.75;;;0.90;99.90;;;;;;5052780;28;20021;-73
2023/01/25 03:07:59;;;;;;;81.93;41.35;;;0.90;99.90;;;;;;5053059;28;20548;-73
2023/01/25 03:10:25;;;;;;;75.68;39.75;;;1.00;99.90;;;;;;5052681;28;20029;-73
2023/01/25 03:12:50;;;;;;;67.95;35.95;;;1.00;99.90;;;;;;5052075;28;20086;-73
2023/01/25 03:15:16;;;;;;;62.47;33.95;;;0.90;99.90;;;;;;5056497;28;20041;-73
2023/01/25 03:17:41;;;;;;;66.93;34.85;;;0.90;99.90;;;;;;5056392;28;20056;-73
2023/01/25 03:20:08;;;;;;;63.58;33.83;;;1.00;99.90;;;;;;5056539;28;20425;-73
2023/01/25 03:22:33;;;;;;;67.38;35.95;;;1.00;99.90;;;;;;5056370;28;20514;-73
2023/01/25 03:24:59;;;;;;;73.22;38.70;;;0.90;99.90;;;;;;5056520;28;20096;-73
2023/01/25 03:27:24;;;;;;;81.35;40.13;;;0.90;99.90;;;;;;5056366;28;20021;-73
2023/01/25 03:29:50;;;;;;;74.85;37.10;;;0.90;99.90;;;;;;5056165;28;20096;-73
2023/01/25 03:32:15;;;;;;;73.22;37.35;;;0.90;99.90;;;;;;5056525;28;20021;-73
2023/01/25 03:34:41;;;;;;;69.05;35.67;;;0.90;99.90;;;;;;5056168;28;20021;-73
2023/01/25 03:37:06;;;;;;;86.88;40.80;;;1.00;99.90;;;;;;5056201;28;20032;-73
2023/01/25 03:39:32;;;;;;;67.85;37.05;;;0.90;99.90;;;;;;5055774;28;20036;-73
2023/01/25 03:41:57;;;;;;;72.13;38.50;;;0.90;99.90;;;;;;5056108;28;20104;-73
2023/01/25 03:44:23;;;;;;;67.93;35.22;;;0.90;99.90;;;;;;5055997;28;20113;-73
2023/01/25 03:46:48;;;;;;;75.13;36.00;;;0.90;99.90;;;;;;5056217;28;20104;-74
2023/01/25 03:49:14;;;;;;;72.55;34.83;;;0.90;99.90;;;;;;5056188;28;20032;-73
2023/01/25 03:51:39;;;;;;;69.07;34.17;;;0.90;99.90;;;;;;5055645;28;20434;-73
2023/01/25 03:54:07;;;;;;;71.88;34.38;;;0.90;99.90;;;;;;5055957;28;20033;-73
2023/01/25 03:56:32;;;;;;;69.40;34.45;;;0.90;99.90;;;;;;5055934;28;20017;-73
2023/01/25 03:58:58;;;;;;;68.20;33.88;;;1.00;99.90;;;;;;5055689;28;20032;-73
2023/01/25 04:01:23;;;;;;;69.90;33.22;;;1.00;99.90;;;;;;5055772;28;20379;-74
2023/01/25 04:03:49;;;;;;;67.53;33.78;;;1.00;99.90;;;;;;5055400;28;20025;-73
2023/01/25 04:06:14;;;;;;;69.00;34.50;;;0.90;99.90;;;;;;5055815;28;20025;-73
2023/01/25 04:08:40;;;;;;;67.47;33.28;;;0.90;99.90;;;;;;5055826;28;20021;-73
2023/01/25 04:11:07;;;;;;;71.53;35.75;;;1.00;99.90;;;;;;5055346;28;20040;-73
2023/01/25 04:13:35;;;;;;;75.43;36.75;;;0.90;99.90;;;;;;5055641;28;20058;-73
2023/01/25 04:16:01;;;;;;;76.45;36.08;;;0.90;99.90;;;;;;5055377;28;20025;-73
2023/01/25 04:18:27;;;;;;;78.00;37.50;;;0.90;99.90;;;;;;5055537;28;20060;-73
2023/01/25 04:20:54;;;;;;;82.95;41.88;;;0.90;99.90;;;;;;5055282;28;20048;-74
2023/01/25 04:23:20;;;;;;;77.68;39.85;;;0.90;99.90;;;;;;5055458;28;20075;-73
2023/01/25 04:25:56;;;;;;;92.90;45.03;;;0.90;99.90;;;;;;5054483;28;20430;-73
2023/01/25 04:28:22;;;;;;;80.15;41.63;;;0.90;99.90;;;;;;5051119;28;20033;-74
2023/01/25 04:30:48;;;;;;;87.88;42.30;;;0.90;99.90;;;;;;5035019;28;20028;-73
2023/01/25 04:33:14;;;;;;;85.95;44.60;;;0.90;99.90;;;;;;5042907;28;20100;-73
2023/01/25 04:35:40;;;;;;;90.75;45.75;;;0.90;99.90;;;;;;5055013;28;20063;-73
2023/01/25 04:38:05;;;;;;;94.43;46.30;;;0.90;99.90;;;;;;5055092;28;20542;-73
2023/01/25 04:40:31;;;;;;;94.72;45.95;;;0.90;99.90;;;;;;5055064;28;20029;-73
2023/01/25 04:42:57;;;;;;;103.05;48.63;;;0.90;99.90;;;;;;5054802;28;20112;-73
2023/01/25 04:45:27;;;;;;;99.22;50.08;;;0.90;99.90;;;;;;5055053;28;20056;-74
2023/01/25 04:47:57;;;;;;;100.43;50.53;;;0.90;99.90;;;;;;5054861;28;20067;-73
2023/01/25 04:50:23;;;;;;;99.20;48.30;;;0.90;99.90;;;;;;5054976;28;20055;-73
2023/01/25 04:52:48;;;;;;;108.47;54.80;;;1.00;99.90;;;;;;5054613;28;20032;-73
2023/01/25 04:55:14;;;;;;;110.43;53.75;;;1.00;99.90;;;;;;5054978;28;20082;-74
2023/01/25 04:57:40;;;;;;;114.65;54.35;;;1.00;99.90;;;;;;5055217;28;20037;-73
2023/01/25 05:00:06;;;;;;;119.50;58.60;;;1.00;99.90;;;;;;5054341;28;20045;-73
2023/01/25 05:02:31;;;;;;;116.60;56.22;;;1.00;99.90;;;;;;5054527;28;20429;-73
2023/01/25 05:04:57;;;;;;;116.93;56.00;;;1.10;99.90;;;;;;5055016;28;20021;-73
2023/01/25 05:07:22;;;;;;;122.32;60.70;;;1.10;99.90;;;;;;5054485;28;20490;-73
2023/01/25 05:09:48;;;;;;;120.85;57.78;;;1.10;99.90;;;;;;5054550;28;20029;-74
2023/01/25 05:12:14;;;;;;;112.97;57.78;;;1.10;99.90;;;;;;5054614;28;20021;-73
2023/01/25 05:14:39;;;;;;;113.35;57.53;;;1.10;99.90;;;;;;5054583;28;20021;-73
2023/01/25 05:17:06;;;;;;;114.53;58.03;;;1.10;99.90;;;;;;5055032;28;20064;-73
2023/01/25 05:19:32;;;;;;;113.80;55.40;;;1.10;99.90;;;;;;5054373;28;20025;-73
2023/01/25 05:21:58;;;;;;;106.13;54.03;;;1.10;99.90;;;;;;5054020;28;20025;-73
2023/01/25 05:24:28;;;;;;;107.18;55.13;;;1.10;99.90;;;;;;5054103;28;20017;-73
2023/01/25 05:27:02;;;;;;;114.90;54.70;;;1.10;99.90;;;;;;5054308;28;20017;-73
2023/01/25 05:29:35;;;;;;;112.93;55.13;;;1.10;99.90;;;;;;5054546;28;20025;-73
2023/01/25 05:32:06;;;;;;;119.63;58.28;;;1.10;99.90;;;;;;5034148;28;20078;-73
2023/01/25 05:34:32;;;;;;;115.80;57.42;;;1.10;99.90;;;;;;5034292;28;20033;-73
2023/01/25 05:36:58;;;;;;;116.15;54.78;;;1.10;99.90;;;;;;5033632;28;20021;-73
2023/01/25 05:39:24;;;;;;;113.78;55.75;;;1.10;99.90;;;;;;5037161;28;20032;-73
2023/01/25 05:41:49;;;;;;;110.82;54.25;;;1.20;99.90;;;;;;5053982;28;20383;-73
2023/01/25 05:44:15;;;;;;;117.63;56.03;;;1.20;99.90;;;;;;5054009;28;20021;-73
2023/01/25 05:46:40;;;;;;;109.85;53.60;;;1.10;99.90;;;;;;5053759;28;20028;-73
2023/01/25 05:49:06;;;;;;;109.13;52.17;;;1.20;99.90;;;;;;5053617;28;20483;-73
2023/01/25 05:51:32;;;;;;;106.90;51.00;;;1.10;99.90;;;;;;5053960;28;20029;-73
2023/01/25 05:53:58;;;;;;;109.40;51.65;;;1.10;99.90;;;;;;5053582;28;20028;-73
2023/01/25 05:56:23;;;;;;;108.45;50.97;;;1.10;99.90;;;;;;5053863;28;20021;-73
2023/01/25 05:58:53;;;;;;;113.05;52.08;;;1.10;99.90;;;;;;5053264;28;20029;-73
2023/01/25 06:01:19;;;;;;;110.93;52.90;;;1.10;99.90;;;;;;5035358;28;20442;-73
2023/01/25 06:03:45;;;;;;;111.97;53.40;;;1.10;99.90;;;;;;5033494;28;20022;-73
2023/01/25 06:06:11;;;;;;;108.63;51.20;;;1.10;99.90;;;;;;5051084;28;20494;-73
2023/01/25 06:08:36;;;;;;;131.20;56.35;;;1.10;99.90;;;;;;5053671;28;20025;-73
2023/01/25 06:11:10;;;;;;;118.25;54.25;;;1.10;99.90;;;;;;5053147;28;20395;-73
2023/01/25 06:13:36;;;;;;;102.22;49.15;;;1.20;99.90;;;;;;5053917;28;20047;-73
2023/01/25 06:16:02;;;;;;;105.75;48.53;;;1.20;99.90;;;;;;5053055;28;20123;-73
2023/01/25 06:18:29;;;;;;;106.82;49.15;;;1.20;99.90;;;;;;5068785;28;20033;-73
2023/01/25 06:20:59;;;;;;;102.65;48.20;;;1.20;99.90;;;;;;5053411;28;20510;-73
2023/01/25 06:23:25;;;;;;;110.50;48.80;;;1.10;99.90;;;;;;5051987;28;20104;-74
2023/01/25 06:25:52;;;;;;;102.15;48.80;;;1.10;99.90;;;;;;5053173;28;20083;-73
2023/01/25 06:28:18;;;;;;;94.78;47.58;;;1.10;99.90;;;;;;5053221;28;20048;-73
2023/01/25 06:30:44;;;;;;;99.75;48.25;;;1.20;99.90;;;;;;5052746;28;20487;-73
2023/01/25 06:33:09;;;;;;;97.80;48.25;;;1.10;99.90;;;;;;5053071;28;20033;-73
2023/01/25 06:35:35;;;;;;;90.10;46.17;;;1.10;99.90;;;;;;5052785;28;20028;-73
2023/01/25 06:38:01;;;;;;;83.05;42.25;;;1.10;99.90;;;;;;5053088;28;20113;-73
2023/01/25 06:40:27;;;;;;;79.35;42.13;;;1.10;99.90;;;;;;5052805;28;20100;-73
2023/01/25 06:42:53;;;;;;;101.60;46.05;;;1.10;99.90;;;;;;5052671;28;20017;-73
2023/01/25 06:45:18;;;;;;;87.22;43.25;;;1.10;99.90;;;;;;5053111;28;20056;-73
2023/01/25 06:47:45;;;;;;;88.00;43.58;;;1.10;99.90;;;;;;5053652;28;20383;-74
2023/01/25 06:50:11;;;;;;;104.20;48.30;;;1.10;99.90;;;;;;5057246;28;20104;-73
2023/01/25 06:52:37;;;;;;;93.82;42.15;;;1.20;99.90;;;;;;5057005;28;20039;-73
2023/01/25 06:55:05;;;;;;;84.53;40.75;;;1.10;99.90;;;;;;5057733;28;20029;-73
2023/01/25 06:57:31;;;;;;;83.72;41.13;;;1.10;99.90;;;;;;5056821;28;20036;-73
2023/01/25 06:59:56;;;;;;;84.70;38.53;;;1.10;99.90;;;;;;5056959;28;20032;-73
2023/01/25 07:02:22;;;;;;;78.88;37.33;;;1.10;99.90;;;;;;5056795;28;20058;-73
2023/01/25 07:04:47;;;;;;;72.93;35.83;;;1.10;99.90;;;;;;5055766;28;20017;-73
2023/01/25 07:07:14;;;;;;;67.50;35.17;;;1.00;99.90;;;;;;5056621;28;20036;-73
2023/01/25 07:09:39;;;;;;;76.10;36.75;;;1.10;99.90;;;;;;5056821;28;20036;-73
2023/01/25 07:12:06;;;;;;;73.95;37.50;;;1.10;99.90;;;;;;5056216;28;20029;-72
2023/01/25 07:14:31;;;;;;;76.15;37.78;;;1.10;99.90;;;;;;5056905;28;20116;-73
2023/01/25 07:16:57;;;;;;;84.75;38.97;;;1.10;99.90;;;;;;5056849;28;20087;-73
2023/01/25 07:19:23;;;;;;;73.75;37.30;;;1.00;99.90;;;;;;5056690;28;20551;-73
2023/01/25 07:21:48;;;;;;;79.32;36.42;;;1.10;99.90;;;;;;5056317;28;20028;-73
2023/01/25 07:24:16;;;;;;;77.95;36.42;;;1.10;99.90;;;;;;5056304;28;20028;-73
2023/01/25 07:26:42;;;;;;;85.65;38.97;;;1.10;99.90;;;;;;5056806;28;20029;-72
2023/01/25 07:29:11;;;;;;;77.13;38.08;;;1.10;99.90;;;;;;5056381;28;20036;-72
2023/01/25 07:31:37;;;;;;;74.72;37.65;;;1.10;99.90;;;;;;5056112;28;20056;-72
2023/01/25 07:34:03;;;;;;;79.18;35.78;;;1.10;99.90;;;;;;5056277;28;20033;-72
2023/01/25 07:36:29;;;;;;;72.00;34.15;;;1.10;99.90;;;;;;5056418;28;20025;-72
2023/01/25 07:38:56;;;;;;;72.53;36.35;;;1.20;99.90;;;;;;5056451;28;20391;-72
2023/01/25 07:41:23;;;;;;;71.43;35.47;;;1.10;99.90;;;;;;5056542;28;20420;-72
2023/01/25 07:43:49;;;;;;;75.88;36.97;;;1.10;99.90;;;;;;5056254;28;20032;-72
2023/01/25 07:46:16;;;;;;;76.22;36.95;;;1.10;99.90;;;;;;5055962;28;20033;-72
2023/01/25 07:48:46;;;;;;;76.65;36.33;;;1.10;99.90;;;;;;5055963;28;20546;-72
2023/01/25 07:51:30;;;;;;;76.25;36.33;;;1.10;99.90;;;;;;5055965;28;20104;-72
2023/01/25 07:53:58;;;;;;;81.70;37.38;;;1.10;99.90;;;;;;5055702;28;20475;-72
2023/01/25 07:56:28;;;;;;;79.18;38.30;;;1.10;99.90;;;;;;5056065;28;20375;-72
2023/01/25 07:58:55;;;;;;;82.93;38.05;;;1.10;99.90;;;;;;5054956;28;20025;-72
2023/01/25 08:01:23;;;;;;;84.03;37.17;;;1.10;99.90;;;;;;5054935;28;20096;-72
2023/01/25 08:03:49;;;;;;;89.18;38.90;;;1.00;99.90;;;;;;5055429;28;20035;-72
2023/01/25 08:06:15;;;;;;;85.03;39.40;;;1.10;99.90;;;;;;5055648;28;20025;-72
2023/01/25 08:08:44;;;;;;;80.38;39.53;;;1.10;99.90;;;;;;5055769;28;20025;-72
2023/01/25 08:11:13;;;;;;;87.18;39.92;;;1.10;99.90;;;;;;5055468;28;20538;-72
2023/01/25 08:13:39;;;;;;;79.90;36.78;;;1.10;99.90;;;;;;5055249;28;20449;-72
2023/01/25 08:16:05;;;;;;;83.43;39.35;;;1.10;99.90;;;;;;5055305;28;20079;-72
2023/01/25 08:18:31;;;;;;;87.55;38.53;;;1.10;99.90;;;;;;5055746;28;20025;-72
2023/01/25 08:20:58;;;;;;;95.75;42.85;;;1.10;99.90;;;;;;5055322;28;20021;-72
2023/01/25 08:23:24;;;;;;;80.95;37.72;;;1.10;99.90;;;;;;5054955;28;20420;-72
2023/01/25 08:25:49;;;;;;;86.18;41.25;;;1.10;99.90;;;;;;5055000;28;20112;-72
2023/01/25 08:28:15;;;;;;;92.25;41.22;;;1.20;99.90;;;;;;5055322;28;20025;-73
2023/01/25 08:30:41;;;;;;;86.10;39.20;;;1.20;99.90;;;;;;5054905;28;20111;-72
2023/01/25 08:33:06;;;;;;;101.82;43.67;;;1.10;99.90;;;;;;5055250;28;20083;-72
2023/01/25 08:35:32;;;;;;;88.80;39.70;;;1.20;99.90;;;;;;5054951;28;20033;-72
2023/01/25 08:37:57;;;;;;;80.50;39.42;;;1.20;99.90;;;;;;5054696;28;20021;-72
2023/01/25 08:40:23;;;;;;;81.57;38.17;;;1.20;99.90;;;;;;5054996;28;20031;-72
2023/01/25 08:42:48;;;;;;;82.90;38.05;;;1.20;99.90;;;;;;5054525;28;20029;-71
2023/01/25 08:45:14;;;;;;;85.32;37.50;;;1.10;99.90;;;;;;5055043;28;20392;-72
2023/01/25 08:47:39;;;;;;;77.63;35.20;;;1.10;99.90;;;;;;5054912;28;20044;-72
2023/01/25 08:50:05;;;;;;;74.60;34.30;;;1.10;99.90;;;;;;5055104;28;20032;-74
2023/01/25 08:52:31;;;;;;;82.40;35.95;;;1.10;99.90;;;;;;5054512;28;20021;-72
2023/01/25 08:54:56;;;;;;;77.28;37.03;;;1.10;99.90;;;;;;5054966;28;20025;-72
2023/01/25 08:57:22;;;;;;;87.15;38.75;;;1.10;99.90;;;;;;5054848;28;20028;-72
2023/01/25 08:59:47;;;;;;;91.55;37.88;;;1.10;99.90;;;;;;5054690;28;20029;-72
2023/01/25 09:02:13;;;;;;;85.03;37.05;;;1.10;99.90;;;;;;5054444;28;20021;-72
2023/01/25 09:04:38;;;;;;;85.65;38.00;;;1.10;99.90;;;;;;5054844;28;20025;-72
2023/01/25 09:07:04;;;;;;;85.20;39.95;;;1.10;99.90;;;;;;5054952;28;20099;-72
2023/01/25 09:09:30;;;;;;;86.03;42.08;;;1.10;99.90;;;;;;5054383;28;20415;-72
2023/01/25 09:11:56;;;;;;;84.72;41.65;;;1.10;99.90;;;;;;5053875;28;20063;-72
2023/01/25 09:14:22;;;;;;;83.88;39.42;;;1.20;99.90;;;;;;5054463;28;20033;-72
2023/01/25 09:16:47;;;;;;;88.47;39.25;;;1.20;99.90;;;;;;5054663;28;20079;-72
2023/01/25 09:19:13;;;;;;;80.18;40.03;;;1.20;99.90;;;;;;5054031;28;20120;-72
2023/01/25 09:21:39;;;;;;;93.32;41.20;;;1.20;99.90;;;;;;5054486;28;20538;-72
2023/01/25 09:24:04;;;;;;;93.70;43.10;;;1.20;99.90;;;;;;5054125;28;20096;-72
2023/01/25 09:26:31;;;;;;;99.85;43.65;;;1.20;99.90;;;;;;5053926;28;20032;-72
2023/01/25 09:28:56;;;;;;;97.50;43.95;;;1.20;99.90;;;;;;5054388;28;20435;-72
2023/01/25 09:31:23;;;;;;;96.18;44.53;;;1.20;99.90;;;;;;5054047;28;20021;-72
2023/01/25 09:33:50;;;;;;;86.05;41.15;;;1.20;99.90;;;;;;5054100;28;20085;-72
2023/01/25 09:36:15;;;;;;;97.25;42.63;;;1.20;99.90;;;;;;5052464;28;20036;-72
2023/01/25 09:38:41;;;;;;;94.32;41.92;;;1.20;99.90;;;;;;5053948;28;20025;-72
2023/01/25 09:41:25;;;;;;;95.57;42.58;;;1.20;99.90;;;;;;5053568;28;20020;-72
2023/01/25 09:44:02;;;;;;;;;;;1.30;99.90;;;;;;5054251;28;20071;-72
2023/01/25 09:46:37;;;;;;;101.05;42.05;;;1.20;99.90;;;;;;5053714;28;20005;-72
2023/01/25 09:49:41;;;;;;;91.93;39.90;;;1.20;99.90;;;;;;5053649;28;20467;-72
2023/01/25 09:52:16;;;;;;;117.00;48.95;;;1.20;99.90;;;;;;5054019;28;20506;-71
2023/01/25 09:54:45;;;;;;;94.70;41.47;;;1.20;99.90;;;;;;5052262;28;20051;-72
2023/01/25 09:57:17;;;;;;;92.18;40.95;;;1.20;99.90;;;;;;5053712;28;20036;-72
2023/01/25 09:59:46;;;;;;;100.07;41.15;;;1.20;99.90;;;;;;5053159;28;20021;-72
2023/01/25 10:02:35;;;;;;;100.00;41.67;;;1.20;99.90;;;;;;5053755;28;20048;-72
2023/01/25 10:05:10;;;;;;;90.85;38.65;;;1.20;99.90;;;;;;5053959;28;20017;-72
2023/01/25 10:07:52;;;;;;;94.45;41.17;;;1.20;99.90;;;;;;5053743;28;20024;-72
2023/01/25 10:10:37;;;;;;;85.20;39.70;;;1.20;99.90;;;;;;5053919;28;20489;-72
2023/01/25 10:13:03;;;;;;;96.85;43.50;;;1.20;99.90;;;;;;5053204;28;20033;-72
2023/01/25 10:15:43;;;;;;;99.07;42.55;;;1.20;99.90;;;;;;5053388;28;20025;-72
2023/01/25 10:18:27;;;;;;;93.28;40.28;;;1.20;99.90;;;;;;5053209;28;20051;-72
2023/01/25 10:21:02;;;;;;;91.18;41.17;;;1.20;99.90;;;;;;5053550;28;20029;-72
2023/01/25 10:24:05;;;;;;;96.13;42.72;;;1.20;99.90;;;;;;5052455;28;20029;-73
2023/01/25 10:26:35;;;;;;;103.18;43.53;;;1.20;99.90;;;;;;5053299;28;20025;-71
2023/01/25 10:29:18;;;;;;;103.00;42.92;;;1.30;99.90;;;;;;5053769;28;20075;-71
2023/01/25 10:32:23;;;;;;;96.35;42.80;;;1.30;99.90;;;;;;5053004;28;20013;-71
2023/01/25 10:34:50;;;;;;;98.22;42.90;;;1.30;99.90;;;;;;5053030;28;20044;-72
2023/01/25 10:37:22;;;;;;;92.35;41.30;;;1.30;99.90;;;;;;5053008;28;20487;-71
2023/01/25 10:40:10;;;;;;;98.85;42.45;;;1.30;99.90;;;;;;5052896;28;20060;-71
2023/01/25 10:42:42;;;;;;;101.22;44.15;;;1.30;99.90;;;;;;5052556;28;20540;-71
2023/01/25 10:45:11;;;;;;;95.35;41.95;;;1.30;99.90;;;;;;5053774;28;20032;-71
2023/01/25 10:47:44;;;;;;;91.45;42.47;;;1.30;99.90;;;;;;5052767;28;20036;-71
2023/01/25 10:50:41;;;;;;;94.72;39.30;;;1.40;99.90;;;;;;5040903;28;20476;-71
2023/01/25 10:53:23;;;;;;;95.30;40.63;;;1.40;99.90;;;;;;5044116;28;20020;-72
2023/01/25 10:55:59;;;;;;;98.90;41.58;;;1.40;99.90;;;;;;5039421;28;20030;-71
2023/01/25 10:58:45;;;;;;;92.18;40.28;;;1.40;99.90;;;;;;5048838;28;20542;-71
2023/01/25 11:01:33;;;;;;;102.10;43.80;;;1.40;99.90;;;;;;5046779;28;20033;-72
2023/01/25 11:04:00;;;;;;;100.45;41.63;;;1.40;99.90;;;;;;5044248;28;20033;-72
2023/01/25 11:06:35;;;;;;;103.70;42.33;;;1.40;99.90;;;;;;5049801;28;20021;-71
2023/01/25 11:09:21;;;;;;;95.57;42.28;;;1.50;99.90;;;;;;5048425;28;20498;-71
2023/01/25 11:11:53;;;;;;;89.30;38.65;;;1.40;99.90;;;;;;5045958;28;20025;-71
2023/01/25 11:14:21;;;;;;;87.95;36.10;;;1.40;99.90;;;;;;5047214;28;20033;-71
2023/01/25 11:16:47;;;;;;;85.82;37.20;;;1.40;99.90;;;;;;5045280;28;20061;-71
2023/01/25 11:19:36;;;;;;;92.03;37.97;;;1.40;99.90;;;;;;5061875;28;20063;-71
2023/01/25 11:22:18;;;;;;;85.72;38.97;;;1.40;99.90;;;;;;5046531;28;20048;-71
2023/01/25 11:24:44;;;;;;;94.40;40.80;;;1.40;99.90;;;;;;5039625;28;20025;-72
2023/01/25 11:27:21;;;;;;;87.10;38.15;;;1.40;99.90;;;;;;5047730;28;20029;-71
2023/01/25 11:30:10;;;;;;;83.80;38.58;;;1.40;99.90;;;;;;5046013;28;20025;-71
2023/01/25 11:32:40;;;;;;;91.25;38.55;;;1.50;99.90;;;;;;5046706;28;20025;-72
2023/01/25 11:35:15;;;;;;;77.88;35.38;;;1.40;99.90;;;;;;5045998;28;20028;-72
2023/01/25 11:37:51;;;;;;;84.15;35.67;;;1.40;99.90;;;;;;5047000;28;20121;-71
2023/01/25 11:40:30;;;;;;;74.68;34.92;;;1.30;99.90;;;;;;5051791;28;20521;-71
2023/01/25 11:43:14;;;;;;;70.78;33.78;;;1.30;99.90;;;;;;5039461;28;20033;-71
2023/01/25 11:46:08;;;;;;;71.72;32.25;;;1.30;99.90;;;;;;5049719;28;20018;-71
2023/01/25 11:49:15;;;;;;;73.28;34.75;;;1.40;99.90;;;;;;5045745;28;20037;-71
2023/01/25 11:51:50;;;;;;;79.85;36.50;;;1.40;99.90;;;;;;5040242;28;20087;-71
2023/01/25 11:54:21;;;;;;;75.55;35.25;;;1.40;99.90;;;;;;5052750;28;20021;-71
2023/01/25 11:56:58;;;;;;;76.10;35.20;;;1.40;99.90;;;;;;5048460;28;20372;-71
2023/01/25 12:00:02;;;;;;;74.57;32.90;;;1.40;99.90;;;;;;5048667;28;20445;-71
2023/01/25 12:02:45;;;;;;;70.18;32.20;;;1.50;99.90;;;;;;5047159;28;20061;-71
2023/01/25 12:05:27;;;;;;;80.40;32.23;;;1.50;99.90;;;;;;5048927;28;20033;-71
2023/01/25 12:08:10;;;;;;;80.65;33.92;;;1.50;99.90;;;;;;5042519;28;20280;-71
2023/01/25 12:11:19;;;;;;;72.10;33.13;;;1.40;99.90;;;;;;5044940;28;20021;-71
2023/01/25 12:14:20;;;;;;;73.60;31.73;;;1.50;99.90;;;;;;5050198;28;20041;-71
2023/01/25 12:16:45;;;;;;;76.57;32.70;;;1.50;99.90;;;;;;5047412;28;20039;-71
2023/01/25 12:19:34;;;;;;;79.22;33.72;;;1.40;99.90;;;;;;5044144;28;20539;-71
2023/01/25 12:22:18;;;;;;;73.90;34.33;;;1.40;99.90;;;;;;5023443;28;20083;-71
2023/01/25 12:24:58;;;;;;;85.10;32.67;;;1.40;99.90;;;;;;5050789;28;20083;-71
2023/01/25 12:27:48;;;;;;;70.82;32.92;;;1.40;99.90;;;;;;5051858;28;20108;-71
2023/01/25 12:30:35;;;;;;;77.03;32.95;;;1.50;99.90;;;;;;5043904;28;20079;-72
2023/01/25 12:33:23;;;;;;;77.65;36.20;;;1.40;99.90;;;;;;5053752;28;20029;-72
2023/01/25 12:36:01;;;;;;;84.25;33.45;;;1.40;99.90;;;;;;5049758;28;20029;-71
2023/01/25 12:38:39;;;;;;;75.80;34.83;;;1.40;99.90;;;;;;5048903;28;20029;-72
2023/01/25 12:41:34;;;;;;;67.68;32.45;;;1.50;99.90;;;;;;5048862;28;20025;-72
2023/01/25 12:44:14;;;;;;;82.43;34.17;;;1.40;99.90;;;;;;5044011;28;20529;-71
2023/01/25 12:46:50;;;;;;;74.32;33.42;;;1.40;99.90;;;;;;5051052;28;20372;-72
2023/01/25 12:49:25;;;;;;;69.68;31.73;;;1.40;99.90;;;;;;5052781;28;20025;-72